Time;durP1;ratioP1;P1;durP2;ratioP2;P2;SDS_P1;SDS_P2;PMS_P1;PMS_P2;Temp;Humidity;BMP_temperature;BMP_pressure;BME280_temperature;BME280_humidity;BME280_pressure;Samples;Min_cycle;Max_cycle;Signal;HPM_P1;HPM_P2
2022/06/02 00:01:12;;;;;;;11.73;6.20;;;;;;;10.08;96.75;100907.00;8318199;28;20060;-61
2022/06/02 00:05:28;;;;;;;7.88;5.75;;;;;;;10.20;95.69;100916.78;8315957;28;20041;-61
2022/06/02 00:14:04;;;;;;;15.60;7.57;;;;;;;9.83;98.08;100911.69;8422197;27;20950;-59
2022/06/02 00:18:22;;;;;;;14.30;6.88;;;;;;;9.74;98.29;100925.09;8399740;28;20068;-59
2022/06/02 00:23:02;;;;;;;10.02;6.43;;;;;;;9.61;99.35;100919.84;8399738;28;20048;-59
2022/06/02 00:27:36;;;;;;;9.50;6.53;;;;;;;9.54;99.77;100923.16;8396732;28;20052;-59
2022/06/02 00:32:01;;;;;;;8.30;6.00;;;;;;;9.65;99.23;100925.84;8392810;28;20119;-59
2022/06/02 00:36:12;;;;;;;8.85;6.32;;;;;;;9.68;98.20;100931.00;8397285;28;20079;-59
2022/06/02 00:40:13;;;;;;;11.80;6.55;;;;;;;9.68;98.54;100931.00;8405811;28;20778;-59
2022/06/02 00:44:36;;;;;;;11.35;7.50;;;;;;;9.79;99.13;100928.28;8414165;28;20039;-59
2022/06/02 00:49:05;;;;;;;9.80;6.53;;;;;;;9.66;98.89;100938.34;8396979;28;20037;-59
2022/06/02 00:53:20;;;;;;;10.32;6.60;;;;;;;9.43;99.17;100947.47;8401040;28;20036;-59
2022/06/02 00:57:40;;;;;;;;;;;;;;;9.12;100.00;100953.59;8402859;28;20447;-59
2022/06/02 01:01:40;;;;;;;12.23;7.38;;;;;;;8.52;100.00;100952.94;8401456;28;19912;-59
2022/06/02 01:06:23;;;;;;;12.48;6.80;;;;;;;8.46;100.00;100948.00;8403519;28;20083;-59
2022/06/02 01:15:16;;;;;;;10.63;7.15;;;;;;;8.68;100.00;100956.16;8301753;28;20406;-59
2022/06/02 01:19:56;;;;;;;9.60;6.88;;;;;;;8.64;100.00;100958.25;8297570;28;20057;-59
2022/06/02 01:24:27;;;;;;;8.02;6.35;;;;;;;8.69;100.00;100960.59;8296824;28;20061;-59
2022/06/02 01:28:54;;;;;;;8.93;6.38;;;;;;;8.55;100.00;100968.88;8299033;28;20116;-59
2022/06/02 01:37:44;;;;;;;13.63;7.63;;;;;;;8.37;100.00;100962.16;8407460;27;20435;-62
2022/06/02 01:42:11;;;;;;;9.20;7.20;;;;;;;8.68;100.00;100965.13;8410411;28;20108;-60
2022/06/02 01:46:26;;;;;;;12.10;7.72;;;;;;;8.74;100.00;100963.78;8404963;28;20036;-60
2022/06/02 01:50:36;;;;;;;;;;;;;;;8.52;100.00;100966.41;8428183;28;20040;-60
2022/06/02 01:55:16;;;;;;;11.55;7.78;;;;;;;8.39;100.00;100962.94;8411167;28;19940;-61
2022/06/02 01:59:56;;;;;;;15.63;8.18;;;;;;;8.30;100.00;100961.78;8409829;28;20037;-60
2022/06/02 02:04:20;;;;;;;15.23;9.18;;;;;;;8.44;100.00;100955.34;8427513;28;20056;-61
2022/06/02 02:09:01;;;;;;;16.08;9.15;;;;;;;8.45;100.00;100967.84;8415398;28;20052;-61
2022/06/02 02:13:20;;;;;;;15.43;10.43;;;;;;;8.60;100.00;100966.69;8417123;28;20408;-60
2022/06/02 02:17:56;;;;;;;16.00;10.65;;;;;;;8.64;100.00;100968.16;8420086;28;20080;-60
2022/06/02 02:22:19;;;;;;;20.70;10.38;;;;;;;8.59;100.00;100973.03;8427620;28;20468;-60
2022/06/02 02:26:42;;;;;;;14.10;10.02;;;;;;;8.59;100.00;100981.13;8414177;28;20041;-60
2022/06/02 02:35:09;;;;;;;16.55;9.77;;;;;;;7.99;100.00;100975.75;8419487;27;20432;-62
2022/06/02 02:43:54;;;;;;;13.68;9.65;;;;;;;7.76;100.00;100973.91;8359239;27;20843;-59
2022/06/02 02:48:16;;;;;;;14.63;8.40;;;;;;;7.60;100.00;100979.53;8348933;28;20037;-59
2022/06/02 02:52:41;;;;;;;19.90;11.13;;;;;;;8.16;100.00;100977.22;8359246;28;20060;-59
2022/06/02 02:57:05;;;;;;;17.90;12.13;;;;;;;8.33;100.00;100982.25;8332257;28;20391;-61
2022/06/02 03:01:15;;;;;;;19.15;11.15;;;;;;;8.45;100.00;100978.63;8331904;28;20037;-60
2022/06/02 03:05:24;;;;;;;17.02;11.43;;;;;;;8.38;100.00;100993.53;8353881;28;20069;-61
2022/06/02 03:09:52;;;;;;;19.58;11.93;;;;;;;8.14;100.00;100993.47;8340927;28;20409;-61
2022/06/02 03:14:09;;;;;;;15.15;10.40;;;;;;;8.20;100.00;101000.28;8341383;28;20049;-61
2022/06/02 03:18:49;;;;;;;20.27;12.38;;;;;;;7.95;100.00;101007.47;8343231;28;20057;-61
2022/06/02 03:23:09;;;;;;;16.58;11.43;;;;;;;8.01;100.00;101007.00;8342560;28;20496;-61
2022/06/02 03:27:43;;;;;;;22.65;13.27;;;;;;;8.09;100.00;101004.59;8333666;28;20444;-61
2022/06/02 03:31:58;;;;;;;17.98;11.10;;;;;;;7.81;100.00;101006.75;8339068;28;20196;-60
2022/06/02 03:36:36;;;;;;;18.77;12.02;;;;;;;7.75;100.00;101010.72;8359110;28;20406;-60
2022/06/02 03:45:36;;;;;;;16.50;11.38;;;;;;;7.84;100.00;101014.59;8384760;27;20938;-59
2022/06/02 03:49:51;;;;;;;18.67;11.75;;;;;;;7.96;100.00;101014.53;8373320;28;20041;-59
2022/06/02 03:54:02;;;;;;;18.50;10.90;;;;;;;8.18;100.00;101015.66;8361699;28;20059;-59
2022/06/02 03:58:12;;;;;;;11.50;9.05;;;;;;;8.02;100.00;101027.56;8371000;28;20041;-59
2022/06/02 04:02:16;;;;;;;14.05;9.90;;;;;;;7.78;100.00;101032.03;8371155;28;20048;-59
2022/06/02 04:06:23;;;;;;;;;;;;;;;8.03;100.00;101042.72;8367101;28;20097;-59
2022/06/02 04:10:54;;;;;;;14.05;9.95;;;;;;;7.97;100.00;101047.72;8379003;28;19917;-59
2022/06/02 04:15:17;;;;;;;14.32;10.07;;;;;;;8.45;100.00;101048.69;8364845;28;20064;-59
2022/06/02 04:24:19;;;;;;;19.20;12.60;;;;;;;8.64;100.00;101067.88;8330721;27;20876;-59
2022/06/02 04:28:46;;;;;;;19.45;13.18;;;;;;;8.93;100.00;101069.22;8301783;28;20045;-59
2022/06/02 04:33:00;;;;;;;23.25;12.73;;;;;;;9.05;100.00;101071.00;8337023;28;20037;-59
2022/06/02 04:42:16;;;;;;;19.08;12.40;;;;;;;9.25;100.00;101083.81;8414049;27;20373;-59
2022/06/02 04:46:56;;;;;;;22.67;11.85;;;;;;;9.52;100.00;101081.69;8389891;28;20105;-60
2022/06/02 04:51:08;;;;;;;16.80;11.32;;;;;;;9.55;100.00;101081.44;8381289;28;20323;-60
2022/06/02 04:55:35;;;;;;;19.52;12.85;;;;;;;9.80;100.00;101086.63;8387495;28;20033;-60
2022/06/02 05:00:03;;;;;;;18.63;13.77;;;;;;;9.94;100.00;101075.56;8378709;28;20040;-60
2022/06/02 05:04:31;;;;;;;17.83;12.93;;;;;;;10.29;99.96;101084.41;8387935;28;20385;-60
2022/06/02 05:09:11;;;;;;;17.20;11.60;;;;;;;10.50;98.16;101061.03;8387978;28;20086;-60
2022/06/02 05:13:43;;;;;;;19.70;12.40;;;;;;;10.83;98.15;101054.66;8362607;28;20045;-60
2022/06/02 05:18:11;;;;;;;20.17;12.88;;;;;;;11.01;96.99;101059.34;8344378;28;20124;-60
2022/06/02 05:22:41;;;;;;;19.92;13.10;;;;;;;11.17;96.36;101067.91;8349795;28;20411;-60
2022/06/02 05:27:21;;;;;;;20.13;12.88;;;;;;;11.52;95.36;101065.72;8351975;28;20050;-60
2022/06/02 05:31:46;;;;;;;20.33;13.93;;;;;;;12.09;95.13;101069.72;8354008;28;20116;-60
2022/06/02 05:36:15;;;;;;;18.40;12.82;;;;;;;11.88;93.93;101076.06;8334200;28;20517;-61
2022/06/02 05:40:31;;;;;;;18.27;12.35;;;;;;;12.61;89.46;101074.88;8337898;28;20124;-61
2022/06/02 05:49:14;;;;;;;19.73;13.52;;;;;;;12.62;92.89;101088.31;8385733;27;20470;-60
2022/06/02 05:53:36;;;;;;;21.60;12.60;;;;;;;12.96;90.97;101083.38;8379467;28;20044;-60
2022/06/02 05:57:45;;;;;;;16.85;12.10;;;;;;;13.42;88.00;101099.81;8381199;28;20124;-60
2022/06/02 06:02:20;;;;;;;20.40;13.35;;;;;;;13.71;86.11;101103.34;8377101;28;20040;-60
2022/06/02 06:10:56;;;;;;;23.98;13.88;;;;;;;13.74;85.28;101105.75;8348029;27;20477;-60
2022/06/02 06:15:22;;;;;;;20.15;14.32;;;;;;;14.31;84.72;101113.78;8300472;28;20092;-60
2022/06/02 06:19:48;;;;;;;21.55;14.75;;;;;;;14.23;84.74;101118.19;8307147;28;20447;-60
2022/06/02 06:28:11;;;;;;;23.67;13.38;;;;;;;14.76;82.41;101117.38;8382634;27;20466;-60
2022/06/02 06:32:35;;;;;;;16.85;13.27;;;;;;;14.83;82.08;101115.78;8350372;28;20120;-60
2022/06/02 06:36:41;;;;;;;;;;;;;;;15.10;81.90;101121.13;8365864;28;20041;-60
2022/06/02 06:41:22;;;;;;;24.63;14.23;;;;;;;15.15;81.54;101127.00;8352922;28;19917;-60
2022/06/02 06:45:48;;;;;;;21.27;13.80;;;;;;;15.31;80.19;101138.03;8334013;28;20055;-60
2022/06/02 06:54:27;;;;;;;19.80;14.60;;;;;;;15.32;81.59;101145.22;8377835;27;20496;-60
2022/06/02 06:58:48;;;;;;;21.48;15.18;;;;;;;15.77;80.50;101136.09;8363407;28;20064;-60
2022/06/02 07:03:11;;;;;;;21.45;14.75;;;;;;;15.99;79.57;101130.09;8374294;28;20471;-60
2022/06/02 07:07:21;;;;;;;22.42;15.80;;;;;;;15.76;80.34;101139.84;8359548;28;20036;-60
2022/06/02 07:12:52;;;;;;;24.88;16.90;;;;;;;15.85;80.45;101130.72;8373045;28;20049;-60
2022/06/02 07:16:29;;;;;;;31.80;19.17;;;;;;;16.04;80.81;101141.41;8340976;28;20045;-60
2022/06/02 07:25:23;;;;;;;31.92;20.45;;;;;;;16.67;78.28;101137.31;8401895;27;20950;-60
2022/06/02 07:29:51;;;;;;;31.15;22.13;;;;;;;16.51;76.31;101129.06;8391846;28;20041;-60
2022/06/02 07:34:16;;;;;;;29.25;20.08;;;;;;;16.49;76.72;101131.97;8391157;28;20096;-60
2022/06/02 07:38:54;;;;;;;27.60;17.88;;;;;;;16.84;74.86;101133.66;8387040;28;20070;-61
2022/06/02 07:43:23;;;;;;;29.15;20.13;;;;;;;16.86;74.74;101127.00;8389096;28;20025;-61
2022/06/02 07:47:54;;;;;;;29.00;17.83;;;;;;;17.04;74.46;101129.59;8392228;28;20053;-61
2022/06/02 07:52:17;;;;;;;29.38;18.33;;;;;;;16.91;74.88;101124.63;8387980;28;20102;-61
2022/06/02 07:56:43;;;;;;;26.15;16.52;;;;;;;17.18;73.47;101121.63;8378160;28;20095;-61
2022/06/02 08:09:53;;;;;;;27.42;15.75;;;;;;;17.90;72.50;101134.47;8402288;27;20431;-61
2022/06/02 08:14:19;;;;;;;25.15;15.00;;;;;;;17.84;70.69;101140.63;8387646;28;20518;-60
2022/06/02 08:18:48;;;;;;;18.35;10.77;;;;;;;17.91;68.05;101132.59;8406666;28;20044;-61
2022/06/02 08:23:15;;;;;;;16.60;11.32;;;;;;;17.95;69.15;101136.69;8397354;28;20044;-60
2022/06/02 08:27:51;;;;;;;15.02;10.20;;;;;;;18.04;66.82;101132.91;8410773;27;20068;-61
2022/06/02 08:32:07;;;;;;;23.85;13.15;;;;;;;18.23;67.52;101136.13;8398537;28;20100;-60
2022/06/02 08:36:14;;;;;;;15.07;10.10;;;;;;;18.26;64.84;101145.84;8421001;27;20035;-60
2022/06/02 08:40:35;;;;;;;19.50;10.90;;;;;;;19.12;65.45;101147.63;8395554;28;20033;-60
2022/06/02 08:45:15;;;;;;;15.60;11.32;;;;;;;19.45;63.83;101152.72;8389930;28;20055;-60
2022/06/02 08:49:49;;;;;;;15.43;9.65;;;;;;;19.92;61.24;101149.78;8390794;28;20056;-60
2022/06/02 08:54:29;;;;;;;11.60;8.48;;;;;;;19.86;60.68;101160.63;8377562;28;20049;-60
2022/06/02 08:59:09;;;;;;;11.40;7.70;;;;;;;19.10;62.12;101158.78;8389736;28;20063;-60
2022/06/02 09:03:43;;;;;;;17.27;11.60;;;;;;;20.14;60.82;101162.63;8385945;28;20055;-60
2022/06/02 09:07:55;;;;;;;7.72;6.93;;;;;;;18.72;60.80;101159.63;8385948;28;20429;-60
2022/06/02 09:12:26;;;;;;;9.13;6.82;;;;;;;18.85;58.18;101159.91;8395479;27;20067;-60
2022/06/02 09:17:07;;;;;;;14.10;7.05;;;;;;;19.65;59.08;101155.84;8411860;27;20124;-60
2022/06/02 09:21:22;;;;;;;9.20;6.38;;;;;;;19.49;57.30;101164.22;8350094;28;20513;-60
2022/06/02 09:26:03;;;;;;;10.52;8.35;;;;;;;19.29;59.81;101155.59;8362350;28;20686;-60
2022/06/02 09:30:07;;;;;;;11.57;8.23;;;;;;;20.39;59.44;101152.25;8364887;28;20037;-60
2022/06/02 09:34:45;;;;;;;12.07;8.55;;;;;;;19.62;59.61;101150.72;8377391;28;20511;-60
2022/06/02 09:39:25;;;;;;;10.10;6.03;;;;;;;19.76;57.00;101160.06;8351343;28;20120;-60
2022/06/02 09:43:36;;;;;;;17.25;7.80;;;;;;;19.74;58.96;101149.25;8363135;28;20036;-60
2022/06/02 09:52:20;;;;;;;12.07;8.25;;;;;;;20.14;56.75;101140.69;8378682;27;20417;-60
2022/06/02 09:56:43;;;;;;;14.52;8.68;;;;;;;21.20;54.45;101134.53;8366575;28;20547;-60
2022/06/02 10:05:40;;;;;;;7.75;6.13;;;;;;;22.77;48.36;101142.28;8376769;27;20443;-61
2022/06/02 10:14:52;;;;;;;15.52;10.55;;;;;;;24.35;48.36;101145.22;8403978;27;20376;-61
2022/06/02 10:19:28;;;;;;;12.10;10.07;;;;;;;24.45;47.87;101130.91;8381809;27;20041;-61
2022/06/02 10:28:44;;;;;;;10.45;7.40;;;;;;;25.77;47.07;101117.13;8403491;27;20492;-60
2022/06/02 10:33:12;;;;;;;8.70;6.68;;;;;;;25.54;43.04;101113.25;8365183;28;20041;-60
2022/06/02 10:37:44;;;;;;;9.40;6.50;;;;;;;26.49;44.76;101122.91;8398297;28;20037;-60
2022/06/02 10:51:16;;;;;;;6.28;5.00;;;;;;;26.57;40.95;101119.00;8413603;27;20428;-60
2022/06/02 10:55:57;;;;;;;6.15;5.00;;;;;;;27.54;41.56;101116.06;8387361;28;20039;-60
2022/06/02 11:00:08;;;;;;;7.40;4.80;;;;;;;27.33;40.04;101113.81;8384952;28;20037;-60
2022/06/02 11:04:49;;;;;;;7.45;5.32;;;;;;;26.07;41.31;101120.97;8377169;28;20584;-60
2022/06/02 11:09:30;;;;;;;9.52;6.05;;;;;;;26.94;41.73;101103.19;8399309;28;20390;-60
2022/06/02 11:14:07;;;;;;;7.18;5.63;;;;;;;27.47;40.35;101107.00;8406069;28;20044;-60
2022/06/02 11:18:49;;;;;;;7.43;6.70;;;;;;;27.37;41.65;101101.16;8410757;28;20488;-60
2022/06/02 11:23:29;;;;;;;8.23;5.90;;;;;;;26.26;42.82;101097.75;8393069;28;20033;-60
2022/06/02 11:27:59;;;;;;;9.10;6.65;;;;;;;26.18;42.33;101097.22;8399963;28;20055;-61
2022/06/02 11:32:13;;;;;;;8.88;5.90;;;;;;;25.91;44.65;101091.03;8399214;28;20044;-61
2022/06/02 11:36:52;;;;;;;10.77;5.47;;;;;;;27.55;42.11;101081.63;8400965;28;20040;-61
2022/06/02 11:41:32;;;;;;;6.30;4.57;;;;;;;26.24;42.60;101086.06;8392511;28;20032;-61
2022/06/02 11:45:54;;;;;;;7.25;5.57;;;;;;;25.63;42.66;101071.22;8420571;28;20041;-60
2022/06/02 11:50:34;;;;;;;5.13;4.25;;;;;;;24.94;44.83;101053.75;8407007;28;20076;-61
2022/06/02 11:55:10;;;;;;;7.60;4.57;;;;;;;22.59;47.14;101059.28;8400244;28;20108;-61
2022/06/02 11:59:49;;;;;;;6.30;4.40;;;;;;;22.21;49.66;101057.13;8403144;28;20040;-61
2022/06/02 12:04:29;;;;;;;8.43;5.30;;;;;;;21.97;49.48;101047.44;8384055;28;20027;-62
2022/06/02 12:09:00;;;;;;;8.73;5.35;;;;;;;21.84;48.35;101047.34;8391214;28;20033;-61
2022/06/02 12:13:12;;;;;;;7.72;5.60;;;;;;;21.57;50.06;101045.41;8390941;28;20041;-61
2022/06/02 12:21:59;;;;;;;8.15;5.55;;;;;;;21.32;51.43;101035.88;8421500;27;20429;-61
2022/06/02 12:26:33;;;;;;;8.10;5.32;;;;;;;20.95;52.50;101030.63;8362564;28;20049;-61
2022/06/02 12:31:15;;;;;;;8.38;5.53;;;;;;;20.71;52.36;101025.47;8346501;28;20064;-61
2022/06/02 12:40:06;;;;;;;7.60;5.40;;;;;;;20.99;51.09;101018.19;8311109;27;20448;-61
2022/06/02 12:44:47;;;;;;;9.75;5.53;;;;;;;21.08;51.44;101017.00;8268790;28;20379;-61
2022/06/02 12:49:22;;;;;;;9.18;4.53;;;;;;;21.14;51.53;101030.81;8260397;28;20414;-60
2022/06/02 12:54:03;;;;;;;5.88;4.20;;;;;;;20.87;51.24;101026.06;8256729;28;20046;-61
2022/06/02 12:58:36;;;;;;;5.75;4.40;;;;;;;21.26;50.66;101009.97;8245493;28;20424;-62
2022/06/02 13:03:16;;;;;;;6.10;3.70;;;;;;;21.16;50.96;101016.88;8244295;28;20399;-62
2022/06/02 13:07:56;;;;;;;3.92;3.58;;;;;;;20.86;49.64;101005.09;8253557;28;20462;-62
2022/06/02 13:12:23;;;;;;;7.63;4.15;;;;;;;20.93;52.75;101013.44;8255683;28;20178;-62
2022/06/02 13:16:56;;;;;;;4.43;3.58;;;;;;;20.73;50.92;101012.34;8255331;28;20059;-62
2022/06/02 13:21:37;;;;;;;5.20;3.65;;;;;;;21.10;50.10;101001.16;8257557;28;20105;-62
2022/06/02 13:26:17;;;;;;;6.05;4.32;;;;;;;21.15;50.93;100995.91;8257608;28;20070;-62
2022/06/02 13:30:45;;;;;;;3.90;3.10;;;;;;;21.53;49.87;100990.97;8277452;28;20124;-62
2022/06/02 13:35:25;;;;;;;5.90;3.90;;;;;;;21.42;49.95;100995.13;8290484;28;20034;-62
2022/06/02 13:44:35;;;;;;;4.03;3.72;;;;;;;21.36;51.51;100993.16;8411268;27;20936;-61
2022/06/02 13:58:48;;;;;;;5.20;3.08;;;;;;;21.40;51.07;100977.94;8394151;28;20037;-62
2022/06/02 14:03:15;;;;;;;6.47;3.40;;;;;;;21.07;50.87;100971.28;8419932;28;20044;-62
2022/06/02 14:07:55;;;;;;;6.18;3.03;;;;;;;21.10;50.89;100970.91;8401010;28;20047;-62
2022/06/02 14:12:29;;;;;;;4.97;4.03;;;;;;;21.34;52.27;100968.59;8401189;28;20037;-62
2022/06/02 14:16:45;;;;;;;7.10;3.28;;;;;;;21.19;51.66;100950.47;8400643;28;20044;-62
2022/06/02 14:25:25;;;;;;;4.00;3.50;;;;;;;20.98;51.19;100950.50;8394833;27;20470;-61
2022/06/02 14:30:04;;;;;;;4.72;3.42;;;;;;;21.26;51.24;100951.38;8385860;28;20045;-61
2022/06/02 14:34:29;;;;;;;4.93;2.97;;;;;;;21.52;49.09;100954.34;8363410;28;22004;-61
2022/06/02 14:38:57;;;;;;;3.22;2.92;;;;;;;21.37;49.61;100961.81;8369713;27;20052;-62
2022/06/02 14:43:22;;;;;;;3.90;3.08;;;;;;;21.20;49.77;100950.25;8373173;28;20404;-62
2022/06/02 14:47:39;;;;;;;3.50;2.97;;;;;;;21.23;51.05;100958.13;8377954;28;20045;-62
2022/06/02 14:51:44;;;;;;;4.80;2.97;;;;;;;21.36;51.68;100954.63;8372094;28;20090;-62
2022/06/02 15:00:09;;;;;;;5.10;2.42;;;;;;;21.66;50.43;100956.13;8274214;28;21029;-61
2022/06/02 15:04:49;;;;;;;2.70;2.20;;;;;;;21.69;48.62;100950.22;8248149;28;20054;-61
2022/06/02 15:09:18;;;;;;;3.75;2.42;;;;;;;21.37;49.04;100939.00;8245429;28;20141;-61
2022/06/02 15:13:47;;;;;;;3.53;1.98;;;;;;;21.59;49.15;100946.97;8249405;28;20114;-61
2022/06/02 15:22:30;;;;;;;2.53;1.95;;;;;;;21.45;48.16;100942.44;8384289;27;20462;-62
2022/06/02 15:26:57;;;;;;;2.45;1.95;;;;;;;21.35;49.63;100941.94;8367343;28;20050;-62
2022/06/02 15:31:16;;;;;;;2.58;2.10;;;;;;;21.55;49.29;100942.91;8385526;28;20108;-62
2022/06/02 15:35:39;;;;;;;3.83;1.83;;;;;;;21.62;50.26;100943.81;8381517;28;20059;-62
2022/06/02 15:44:41;;;;;;;2.45;1.77;;;;;;;21.51;49.33;100929.75;8358423;27;21440;-60
2022/06/02 15:49:11;;;;;;;2.47;1.42;;;;;;;21.65;51.13;100926.06;8347727;28;20037;-60
2022/06/02 15:53:52;;;;;;;4.72;2.20;;;;;;;21.64;51.03;100925.19;8350137;28;20441;-61
2022/06/02 15:58:32;;;;;;;2.95;2.30;;;;;;;21.56;50.07;100919.84;8350925;28;20124;-62
2022/06/02 16:12:22;;;;;;;2.58;2.05;;;;;;;21.30;49.82;100892.16;8404929;27;20393;-61
2022/06/02 16:17:03;;;;;;;3.25;2.05;;;;;;;21.49;49.57;100888.69;8386774;28;20052;-61
2022/06/02 16:21:43;;;;;;;2.53;1.67;;;;;;;21.40;49.40;100884.41;8385773;28;20071;-61
2022/06/02 16:26:13;;;;;;;2.40;1.48;;;;;;;21.39;47.97;100882.72;8393318;28;20049;-61
2022/06/02 16:30:25;;;;;;;2.75;1.83;;;;;;;21.52;49.80;100877.28;8388359;28;20040;-61
2022/06/02 16:35:00;;;;;;;2.20;1.42;;;;;;;21.48;49.99;100876.00;8393120;28;20045;-61
2022/06/02 16:39:40;;;;;;;3.17;1.40;;;;;;;21.53;49.62;100881.72;8398548;28;20045;-61
2022/06/02 16:44:20;;;;;;;3.22;1.35;;;;;;;21.41;48.14;100885.25;8388063;28;20100;-61
2022/06/02 16:48:50;;;;;;;3.00;1.13;;;;;;;21.34;49.27;100879.69;8388741;28;20028;-61
2022/06/02 16:53:08;;;;;;;1.73;1.60;;;;;;;21.48;49.17;100867.75;8412028;28;20044;-61
2022/06/02 17:01:55;;;;;;;2.60;1.40;;;;;;;21.42;49.92;100875.94;8393543;27;20427;-61
2022/06/02 17:06:35;;;;;;;1.55;1.20;;;;;;;21.37;49.22;100862.78;8385270;28;20048;-61
2022/06/02 17:11:00;;;;;;;3.33;1.15;;;;;;;21.42;49.09;100865.78;8341736;28;20053;-61
2022/06/02 17:15:14;;;;;;;2.45;0.90;;;;;;;21.40;48.48;100861.56;8365233;28;20035;-61
2022/06/02 17:19:46;;;;;;;3.17;1.03;;;;;;;21.42;49.05;100868.56;8361036;28;20041;-62
2022/06/02 17:24:27;;;;;;;5.18;1.25;;;;;;;21.44;48.40;100865.59;8362719;28;20049;-61
2022/06/02 17:33:23;;;;;;;1.48;1.05;;;;;;;21.34;50.66;100876.94;8424912;27;20912;-61
2022/06/02 17:38:03;;;;;;;1.73;0.90;;;;;;;21.24;49.99;100877.31;8396769;28;20050;-61
2022/06/02 17:42:41;;;;;;;2.22;1.40;;;;;;;21.22;49.53;100875.81;8389941;28;20045;-61
2022/06/02 17:47:21;;;;;;;0.85;0.85;;;;;;;21.21;51.15;100874.97;8399653;28;20107;-61
2022/06/02 17:51:48;;;;;;;2.33;1.08;;;;;;;21.15;49.97;100875.78;8395186;28;20045;-62
2022/06/02 17:56:03;;;;;;;1.75;1.13;;;;;;;21.15;50.20;100880.41;8388793;28;20063;-61
2022/06/02 18:00:43;;;;;;;1.10;0.95;;;;;;;21.15;50.76;100880.41;8383066;28;20071;-62
2022/06/02 18:05:12;;;;;;;2.28;1.15;;;;;;;21.06;51.23;100876.97;8389989;28;20044;-61
2022/06/02 18:14:27;;;;;;;2.20;1.00;;;;;;;21.04;51.00;100878.19;8418413;27;20493;-60
2022/06/02 18:23:20;;;;;;;1.48;1.00;;;;;;;20.85;52.25;100874.22;8360957;27;20401;-62
2022/06/02 18:27:59;;;;;;;3.50;1.17;;;;;;;20.84;51.52;100866.16;8362523;28;20065;-62
2022/06/02 18:32:33;;;;;;;1.88;1.10;;;;;;;20.73;51.93;100859.31;8350420;28;20468;-62
2022/06/02 18:37:13;;;;;;;1.90;1.05;;;;;;;20.75;51.76;100861.84;8348620;28;20043;-62
2022/06/02 18:41:53;;;;;;;1.42;1.20;;;;;;;20.57;52.68;100858.72;8359584;28;20072;-62
2022/06/02 18:51:07;;;;;;;1.58;1.00;;;;;;;20.42;55.35;100850.56;8402708;27;20851;-61
2022/06/02 18:55:47;;;;;;;2.35;0.85;;;;;;;20.27;54.50;100851.66;8407021;27;20040;-62
2022/06/02 19:00:21;;;;;;;2.15;1.45;;;;;;;20.03;56.23;100843.75;8392906;28;20383;-61
2022/06/02 19:04:57;;;;;;;1.45;1.00;;;;;;;20.04;55.67;100845.47;8412964;28;20135;-61
2022/06/02 19:18:58;;;;;;;2.00;0.98;;;;;;;19.46;57.66;100855.47;8382118;27;20408;-62
2022/06/02 19:23:30;;;;;;;2.83;1.00;;;;;;;19.45;57.87;100861.13;8364225;28;20489;-62
2022/06/02 19:28:03;;;;;;;1.67;1.25;;;;;;;19.37;58.30;100861.25;8359022;28;20392;-62
2022/06/02 19:32:26;;;;;;;4.97;1.42;;;;;;;19.18;59.29;100868.09;8356892;28;20041;-62
2022/06/02 19:36:51;;;;;;;3.72;1.55;;;;;;;19.06;59.80;100866.03;8341616;28;20105;-62
2022/06/02 19:41:06;;;;;;;5.72;1.67;;;;;;;18.88;60.91;100862.78;8339292;28;20113;-62
2022/06/02 19:49:55;;;;;;;4.13;1.38;;;;;;;18.69;61.15;100864.13;8315156;28;20352;-62
2022/06/02 19:54:01;;;;;;;1.88;1.63;;;;;;;18.57;62.02;100871.06;8355108;28;20037;-61
2022/06/02 19:58:15;;;;;;;3.00;1.70;;;;;;;18.48;62.20;100866.69;8318908;28;20042;-61
2022/06/02 20:02:22;;;;;;;2.83;1.70;;;;;;;18.33;63.05;100871.22;8317117;28;20038;-62
2022/06/02 20:10:52;;;;;;;1.90;1.50;;;;;;;18.18;63.48;100883.13;8386397;27;20437;-62
2022/06/02 20:15:00;;;;;;;4.78;1.55;;;;;;;17.99;64.26;100891.81;8369627;28;20083;-62
2022/06/02 20:19:11;;;;;;;2.95;1.50;;;;;;;17.84;64.65;100894.41;8370249;28;20099;-63
2022/06/02 20:23:23;;;;;;;3.78;1.30;;;;;;;17.70;65.19;100892.44;8374763;28;20413;-62
2022/06/02 20:27:36;;;;;;;2.28;1.08;;;;;;;17.74;64.69;100893.78;8377079;28;20037;-62
2022/06/02 20:31:44;;;;;;;1.88;1.50;;;;;;;17.58;65.21;100907.53;8383598;28;20041;-62
2022/06/02 20:36:24;;;;;;;2.80;1.17;;;;;;;17.69;64.50;100898.97;8363071;28;20139;-62
2022/06/02 20:41:05;;;;;;;2.67;1.27;;;;;;;17.65;64.26;100904.97;8359544;28;20497;-62
2022/06/02 20:45:18;;;;;;;1.27;0.90;;;;;;;17.63;63.88;100904.28;8373596;28;20041;-62
2022/06/02 20:49:28;;;;;;;1.63;1.00;;;;;;;17.55;64.03;100905.16;8364923;28;20662;-62
2022/06/02 20:53:35;;;;;;;1.25;1.15;;;;;;;17.48;64.38;100904.16;8364480;28;20283;-62
2022/06/02 20:57:42;;;;;;;3.08;1.20;;;;;;;17.42;64.11;100900.19;8363797;28;20045;-62
2022/06/02 21:01:51;;;;;;;1.67;1.00;;;;;;;17.36;64.68;100894.59;8367025;28;20477;-62
2022/06/02 21:06:04;;;;;;;2.17;1.45;;;;;;;17.31;64.34;100902.44;8378793;28;20037;-62
2022/06/02 21:10:28;;;;;;;1.13;0.85;;;;;;;17.33;64.37;100905.88;8396566;28;22544;-62
2022/06/02 21:14:30;;;;;;;;;;;;;;;17.19;65.00;100903.84;8391053;28;20484;-62
2022/06/02 21:18:57;;;;;;;3.55;1.33;;;;;;;17.13;64.80;100901.78;8397467;28;19932;-62
2022/06/02 21:23:01;;;;;;;1.00;0.90;;;;;;;17.02;65.26;100893.97;8349240;28;20596;-62
2022/06/02 21:27:37;;;;;;;6.57;1.10;;;;;;;17.03;65.31;100888.34;8354253;28;20041;-62
2022/06/02 21:31:40;;;;;;;1.10;1.00;;;;;;;16.98;65.60;100887.13;8347672;28;20530;-62
2022/06/02 21:35:52;;;;;;;2.50;1.35;;;;;;;16.92;65.62;100890.53;8366457;28;20053;-62
2022/06/02 21:39:59;;;;;;;1.63;1.15;;;;;;;16.86;65.97;100896.69;8359957;28;20029;-62
2022/06/02 21:44:17;;;;;;;2.60;1.30;;;;;;;16.80;65.96;100881.03;8340717;28;20034;-62
2022/06/02 21:48:25;;;;;;;1.38;1.27;;;;;;;16.66;66.66;100884.44;8351677;28;20045;-62
2022/06/02 21:52:32;;;;;;;3.25;1.50;;;;;;;16.57;67.22;100883.59;8350453;28;20037;-62
2022/06/02 21:56:43;;;;;;;2.22;1.60;;;;;;;16.46;67.69;100874.84;8343505;28;20054;-62
2022/06/02 22:01:08;;;;;;;3.60;1.30;;;;;;;16.35;68.07;100880.63;8337789;28;20049;-62
2022/06/02 22:05:20;;;;;;;1.85;1.30;;;;;;;16.25;68.47;100882.66;8353533;28;20068;-62
2022/06/02 22:09:24;;;;;;;4.50;1.50;;;;;;;16.06;69.53;100880.22;8352743;28;20071;-62
2022/06/02 22:13:49;;;;;;;2.20;1.30;;;;;;;15.93;70.28;100879.84;8346065;28;20089;-62
2022/06/02 22:17:57;;;;;;;5.70;1.85;;;;;;;15.77;70.98;100886.94;8351778;28;20124;-62
2022/06/02 22:22:04;;;;;;;2.33;1.45;;;;;;;15.70;71.04;100877.72;8349473;28;20045;-62
2022/06/02 22:26:34;;;;;;;3.42;1.88;;;;;;;15.47;72.20;100879.31;8347651;28;20063;-62
2022/06/02 22:31:14;;;;;;;3.65;2.10;;;;;;;15.32;72.67;100891.84;8356648;28;20045;-62
2022/06/02 22:35:39;;;;;;;2.95;1.88;;;;;;;15.31;72.89;100895.56;8343563;28;20719;-62
2022/06/02 22:40:11;;;;;;;2.83;2.30;;;;;;;15.35;73.08;100891.53;8365438;28;20041;-62
2022/06/02 22:44:51;;;;;;;2.63;1.48;;;;;;;15.26;74.00;100891.63;8353363;28;20048;-62
2022/06/02 22:53:41;;;;;;;3.70;2.22;;;;;;;14.92;75.40;100896.16;8362236;27;20409;-61
2022/06/02 22:58:22;;;;;;;2.40;2.05;;;;;;;14.76;76.02;100894.16;8329056;28;20037;-61
2022/06/02 23:02:40;;;;;;;3.08;2.08;;;;;;;14.64;76.20;100884.53;8332595;28;20053;-62
2022/06/02 23:07:16;;;;;;;2.33;2.13;;;;;;;14.71;75.90;100898.38;8327435;28;20040;-60
2022/06/02 23:11:56;;;;;;;3.85;2.05;;;;;;;14.76;76.42;100894.16;8330988;28;20030;-60
2022/06/02 23:16:24;;;;;;;2.85;2.30;;;;;;;14.80;75.29;100890.13;8326680;28;20117;-60
2022/06/02 23:20:57;;;;;;;4.40;2.35;;;;;;;14.63;76.35;100893.72;8333096;28;20401;-60
2022/06/02 23:25:09;;;;;;;5.85;2.53;;;;;;;14.41;77.50;100896.94;8328158;28;20037;-60
2022/06/02 23:29:34;;;;;;;5.22;3.10;;;;;;;14.49;77.30;100902.44;8330927;28;20037;-60
2022/06/02 23:38:32;;;;;;;5.82;3.42;;;;;;;13.90;81.05;100893.97;8366890;27;20977;-61
2022/06/02 23:52:04;;;;;;;4.72;4.10;;;;;;;13.24;84.56;100889.75;8352843;27;19921;-61